createdAt,value
2017-09-18T00:01:24.007Z,11.00
2017-09-18T00:03:51.518Z,11.00
2017-09-18T00:06:19.011Z,10.90
2017-09-18T00:08:47.294Z,10.90
2017-09-18T00:11:15.547Z,10.90
2017-09-18T00:13:43.038Z,10.90
2017-09-18T00:16:10.571Z,10.80
2017-09-18T00:18:38.825Z,10.80
2017-09-18T00:21:06.315Z,10.80
2017-09-18T00:23:34.598Z,10.80
2017-09-18T00:26:02.854Z,10.80
2017-09-18T00:28:31.114Z,10.80
2017-09-18T00:30:58.622Z,10.80
2017-09-18T00:33:26.110Z,10.80
2017-09-18T00:35:53.597Z,10.80
2017-09-18T00:38:21.105Z,10.80
2017-09-18T00:40:48.595Z,10.80
2017-09-18T00:43:16.081Z,10.80
2017-09-18T00:45:44.359Z,10.80
2017-09-18T00:48:12.614Z,10.90
2017-09-18T00:50:40.101Z,10.80
2017-09-18T00:53:08.374Z,10.80
2017-09-18T00:55:36.630Z,10.80
2017-09-18T00:58:04.113Z,10.70
2017-09-18T01:00:32.394Z,10.70
2017-09-18T01:03:00.646Z,10.70
2017-09-18T01:05:28.134Z,10.60
2017-09-18T01:07:55.646Z,10.60
2017-09-18T01:10:23.130Z,10.60
2017-09-18T01:12:51.387Z,10.50
2017-09-18T01:15:18.900Z,10.50
2017-09-18T01:17:46.390Z,10.40
2017-09-18T01:20:14.646Z,10.40
2017-09-18T01:22:42.154Z,10.40
2017-09-18T01:25:09.644Z,10.40
2017-09-18T01:27:37.154Z,10.30
2017-09-18T01:30:04.639Z,10.30
2017-09-18T01:32:32.913Z,10.30
2017-09-18T01:35:01.171Z,10.30
2017-09-18T01:37:28.658Z,10.30
2017-09-18T01:39:56.171Z,10.20
2017-09-18T01:42:23.658Z,10.20
2017-09-18T01:44:51.937Z,10.20
2017-09-18T01:47:20.190Z,10.10
2017-09-18T01:49:47.684Z,10.10
2017-09-18T01:52:15.193Z,10.10
2017-09-18T01:54:42.682Z,10.00
2017-09-18T01:57:10.170Z,10.00
2017-09-18T01:59:37.682Z,10.00
2017-09-18T02:02:05.171Z,10.00
2017-09-18T02:04:32.657Z,9.90
2017-09-18T02:07:00.158Z,9.90
2017-09-18T02:09:27.642Z,9.90
2017-09-18T02:11:55.918Z,9.80
2017-09-18T02:14:24.166Z,9.70
2017-09-18T02:16:51.651Z,9.60
2017-09-18T02:19:19.918Z,9.60
2017-09-18T02:21:48.166Z,9.50
2017-09-18T02:24:15.651Z,9.50
2017-09-18T02:26:43.926Z,9.50
2017-09-18T02:29:12.179Z,9.50
2017-09-18T02:31:39.695Z,9.50
2017-09-18T02:34:07.176Z,9.50
2017-09-18T02:36:34.665Z,9.50
2017-09-18T02:39:02.173Z,9.50
2017-09-18T02:41:29.658Z,9.50
2017-09-18T02:43:57.142Z,9.50
2017-09-18T02:46:25.226Z,9.50
2017-09-18T02:48:53.470Z,9.40
2017-09-18T02:51:20.974Z,9.40
2017-09-18T02:53:48.454Z,9.40
2017-09-18T02:56:15.938Z,9.30
2017-09-18T02:58:43.442Z,9.30
2017-09-18T03:01:10.938Z,9.20
2017-09-18T03:03:38.430Z,9.20
2017-09-18T03:06:05.934Z,9.20
2017-09-18T03:08:33.418Z,9.20
2017-09-18T03:11:00.926Z,9.20
2017-09-18T03:13:29.179Z,9.30
2017-09-18T03:15:56.662Z,9.20
2017-09-18T03:18:24.944Z,9.30
2017-09-18T03:20:53.189Z,9.30
2017-09-18T03:23:20.675Z,9.30
2017-09-18T03:25:48.945Z,9.40
2017-09-18T03:28:17.190Z,9.40
2017-09-18T03:30:44.698Z,9.40
2017-09-18T03:33:12.234Z,9.40
2017-09-18T03:35:40.486Z,9.40
2017-09-18T03:38:07.995Z,9.40
2017-09-18T03:40:35.479Z,9.50
2017-09-18T03:43:03.742Z,9.40
2017-09-18T03:45:31.250Z,9.40
2017-09-18T03:47:58.738Z,9.30
2017-09-18T03:50:26.246Z,9.30
2017-09-18T03:52:53.729Z,9.30
2017-09-18T03:55:21.982Z,9.30
2017-09-18T03:57:49.491Z,9.30
2017-09-18T04:00:16.980Z,9.30
2017-09-18T04:02:44.470Z,9.40
2017-09-18T04:05:11.974Z,9.40
2017-09-18T04:07:39.461Z,9.40
2017-09-18T04:10:08.329Z,9.40
2017-09-18T04:12:35.827Z,9.40
2017-09-18T04:15:03.324Z,9.40
2017-09-18T04:17:30.851Z,9.40
2017-09-18T04:19:58.352Z,9.40
2017-09-18T04:22:25.856Z,9.40
2017-09-18T04:24:53.408Z,9.40
2017-09-18T04:27:20.916Z,9.40
2017-09-18T04:29:48.435Z,9.40
2017-09-18T04:32:16.055Z,9.40
2017-09-18T04:34:43.547Z,9.40
2017-09-18T04:37:11.060Z,9.40
2017-09-18T04:39:38.568Z,9.40
2017-09-18T04:42:06.066Z,9.50
2017-09-18T04:44:33.565Z,9.40
2017-09-18T04:47:01.049Z,9.50
2017-09-18T04:49:28.625Z,9.50
2017-09-18T04:51:56.947Z,9.50
2017-09-18T04:54:24.443Z,9.40
2017-09-18T04:56:51.950Z,9.50
2017-09-18T04:59:19.433Z,9.50
2017-09-18T05:01:46.918Z,9.50
2017-09-18T05:04:14.425Z,9.50
2017-09-18T05:06:41.998Z,9.50
2017-09-18T05:09:09.514Z,9.50
2017-09-18T05:11:37.765Z,9.50
2017-09-18T05:14:05.266Z,9.50
2017-09-18T05:16:32.750Z,9.50
2017-09-18T05:19:00.259Z,9.50
2017-09-18T05:21:27.746Z,9.60
2017-09-18T05:23:55.254Z,9.60
2017-09-18T05:26:22.739Z,9.60
2017-09-18T05:28:51.017Z,9.60
2017-09-18T05:31:18.507Z,9.60
2017-09-18T05:33:46.014Z,9.60
2017-09-18T05:36:13.512Z,9.60
2017-09-18T05:38:41.017Z,9.70
2017-09-18T05:41:08.535Z,9.70
2017-09-18T05:43:36.031Z,9.70
2017-09-18T05:46:03.562Z,9.70
2017-09-18T05:48:31.050Z,9.80
2017-09-18T05:50:58.571Z,9.90
2017-09-18T05:53:26.062Z,9.90
2017-09-18T05:55:53.583Z,10.00
2017-09-18T05:58:21.100Z,10.00
2017-09-18T06:00:48.612Z,10.10
2017-09-18T06:03:16.111Z,10.20
2017-09-18T06:05:43.640Z,10.20
2017-09-18T06:08:11.138Z,10.20
2017-09-18T06:10:38.664Z,10.30
2017-09-18T06:13:06.158Z,10.40
2017-09-18T06:15:33.690Z,10.40
2017-09-18T06:18:01.195Z,10.50
2017-09-18T06:20:28.718Z,10.50
2017-09-18T06:22:56.290Z,10.60
2017-09-18T06:25:24.570Z,10.60
2017-09-18T06:27:52.830Z,10.50
2017-09-18T06:30:20.346Z,10.50
2017-09-18T06:32:47.841Z,10.50
2017-09-18T06:35:15.334Z,10.60
2017-09-18T06:37:43.618Z,10.60
2017-09-18T06:40:11.120Z,10.60
2017-09-18T06:42:38.638Z,10.60
2017-09-18T06:45:06.139Z,10.70
2017-09-18T06:47:33.654Z,10.70
2017-09-18T06:50:01.155Z,10.80
2017-09-18T06:52:28.671Z,10.80
2017-09-18T06:54:56.174Z,10.80
2017-09-18T06:57:23.791Z,10.80
2017-09-18T06:59:51.280Z,10.80
2017-09-18T07:02:18.798Z,10.80
2017-09-18T07:04:46.308Z,10.90
2017-09-18T07:07:13.817Z,10.90
2017-09-18T07:09:41.310Z,10.90
2017-09-18T07:12:08.822Z,10.90
2017-09-18T07:14:37.090Z,10.90
2017-09-18T07:17:05.383Z,10.90
2017-09-18T07:19:32.874Z,10.90
2017-09-18T07:22:00.381Z,10.90
2017-09-18T07:24:28.639Z,11.00
2017-09-18T07:26:56.159Z,11.00
2017-09-18T07:29:23.654Z,11.00
2017-09-18T07:31:51.143Z,11.10
2017-09-18T07:34:18.663Z,11.10
2017-09-18T07:36:46.158Z,11.20
2017-09-18T07:39:14.438Z,11.30
2017-09-18T07:41:42.698Z,11.40
2017-09-18T07:44:10.982Z,11.60
2017-09-18T07:46:39.262Z,11.70
2017-09-18T07:49:06.770Z,11.70
2017-09-18T07:51:34.271Z,11.90
2017-09-18T07:54:01.781Z,12.00
2017-09-18T07:56:29.275Z,12.10
2017-09-18T07:58:56.786Z,12.10
2017-09-18T08:01:24.274Z,12.20
2017-09-18T08:03:51.798Z,12.20
2017-09-18T08:06:19.290Z,12.10
2017-09-18T08:08:46.808Z,12.10
2017-09-18T08:11:14.302Z,12.20
2017-09-18T08:13:41.817Z,12.20
2017-09-18T08:16:09.305Z,12.30
2017-09-18T08:18:36.818Z,12.30
2017-09-18T08:21:05.073Z,12.50
2017-09-18T08:23:32.563Z,12.50
2017-09-18T08:26:00.078Z,12.50
2017-09-18T08:28:27.572Z,12.60
2017-09-18T08:30:55.850Z,12.70
2017-09-18T08:33:23.342Z,12.70
2017-09-18T08:35:50.853Z,12.70
2017-09-18T08:38:18.347Z,12.80
2017-09-18T08:40:45.858Z,12.80
2017-09-18T08:43:13.347Z,12.80
2017-09-18T08:45:40.866Z,12.80
2017-09-18T08:48:08.359Z,12.90
2017-09-18T08:50:36.651Z,13.00
2017-09-18T08:53:04.142Z,13.00
2017-09-18T08:55:31.663Z,13.00
2017-09-18T08:57:59.159Z,12.90
2017-09-18T09:00:26.666Z,13.00
2017-09-18T09:02:54.931Z,13.20
2017-09-18T09:05:22.450Z,13.10
2017-09-18T09:07:49.952Z,13.30
2017-09-18T09:10:17.466Z,13.50
2017-09-18T09:12:45.723Z,13.70
2017-09-18T09:15:13.216Z,13.70
2017-09-18T09:17:40.730Z,13.60
2017-09-18T09:20:08.221Z,13.60
2017-09-18T09:22:35.737Z,13.50
2017-09-18T09:25:03.227Z,13.40
2017-09-18T09:27:30.743Z,13.50
2017-09-18T09:29:59.007Z,14.30
2017-09-18T09:32:27.282Z,14.90
2017-09-18T09:34:54.776Z,14.90
2017-09-18T09:37:22.295Z,15.10
2017-09-18T09:39:49.793Z,15.10
2017-09-18T09:42:17.315Z,14.90
2017-09-18T09:44:45.584Z,14.80
2017-09-18T09:47:13.098Z,14.80
2017-09-18T09:49:40.591Z,14.80
2017-09-18T09:52:08.114Z,14.70
2017-09-18T09:54:35.603Z,14.70
2017-09-18T09:57:03.116Z,14.70
2017-09-18T09:59:30.606Z,14.80
2017-09-18T10:01:58.118Z,15.00
2017-09-18T10:04:25.615Z,15.10
2017-09-18T10:06:53.116Z,15.40
2017-09-18T10:09:21.402Z,16.20
2017-09-18T10:11:49.663Z,16.30
2017-09-18T10:14:17.180Z,16.20
2017-09-18T10:16:45.443Z,15.90
2017-09-18T10:19:12.955Z,15.90
2017-09-18T10:21:40.462Z,15.70
2017-09-18T10:24:07.975Z,15.80
2017-09-18T10:26:35.471Z,15.80
2017-09-18T10:29:02.991Z,16.00
2017-09-18T10:31:31.246Z,15.60
2017-09-18T10:33:58.759Z,15.60
2017-09-18T10:36:26.258Z,15.80
2017-09-18T10:38:53.771Z,15.70
2017-09-18T10:41:21.258Z,15.80
2017-09-18T10:43:48.765Z,15.90
2017-09-18T10:46:17.023Z,16.30
2017-09-18T10:48:44.544Z,16.30
2017-09-18T10:51:12.047Z,16.50
2017-09-18T10:53:39.567Z,16.70
2017-09-18T10:56:07.059Z,16.60
2017-09-18T10:58:34.551Z,17.00
2017-09-18T11:01:02.067Z,17.70
2017-09-18T11:03:29.559Z,19.90
2017-09-18T11:05:57.847Z,21.00
2017-09-18T11:08:25.343Z,20.90
2017-09-18T11:10:52.855Z,20.60
2017-09-18T11:13:20.352Z,19.30
2017-09-18T11:15:48.631Z,18.40
2017-09-18T11:18:16.892Z,19.00
2017-09-18T11:20:44.410Z,19.00
2017-09-18T11:23:12.667Z,19.60
2017-09-18T11:25:40.183Z,19.60
2017-09-18T11:28:07.683Z,19.50
2017-09-18T11:30:35.207Z,19.20
2017-09-18T11:33:02.699Z,19.50
2017-09-18T11:35:30.210Z,19.40
2017-09-18T11:37:57.702Z,19.30
2017-09-18T11:40:25.218Z,18.80
2017-09-18T11:42:52.712Z,18.80
2017-09-18T11:45:20.227Z,18.90
2017-09-18T11:47:47.718Z,19.20
2017-09-18T11:50:15.234Z,19.70
2017-09-18T11:52:43.522Z,19.70
2017-09-18T11:55:11.010Z,19.70
2017-09-18T11:57:38.526Z,20.90
2017-09-18T12:00:06.788Z,21.30
2017-09-18T12:02:35.072Z,22.50
2017-09-18T12:05:02.558Z,22.50
2017-09-18T12:07:30.074Z,21.20
2017-09-18T12:09:57.566Z,22.20
2017-09-18T12:12:25.078Z,21.80
2017-09-18T12:14:52.566Z,22.90
2017-09-18T12:17:20.846Z,22.80
2017-09-18T12:19:48.359Z,22.80
2017-09-18T12:22:15.868Z,23.60
2017-09-18T12:24:44.122Z,25.50
2017-09-18T12:27:11.634Z,25.40
2017-09-18T12:29:39.126Z,25.80
2017-09-18T12:32:06.647Z,25.90
2017-09-18T12:34:34.138Z,24.10
2017-09-18T12:37:01.649Z,22.60
2017-09-18T12:39:29.142Z,21.40
2017-09-18T12:41:56.655Z,20.60
2017-09-18T12:44:24.146Z,20.00
2017-09-18T12:46:51.635Z,19.20
2017-09-18T12:49:19.146Z,18.60
2017-09-18T12:51:46.653Z,18.10
2017-09-18T12:54:14.170Z,17.80
2017-09-18T12:56:41.662Z,17.60
2017-09-18T12:59:09.182Z,16.90
2017-09-18T13:01:36.675Z,16.50
2017-09-18T13:04:04.186Z,16.20
2017-09-18T13:06:31.681Z,16.10
2017-09-18T13:08:59.227Z,15.90
2017-09-18T13:11:26.739Z,15.70
2017-09-18T13:13:54.256Z,15.50
2017-09-18T13:16:21.751Z,15.30
2017-09-18T13:18:49.263Z,15.10
2017-09-18T13:21:16.758Z,15.10
2017-09-18T13:23:44.271Z,15.10
2017-09-18T13:26:11.771Z,15.00
2017-09-18T13:28:39.290Z,15.10
2017-09-18T13:31:06.783Z,15.30
2017-09-18T13:33:34.304Z,15.50
2017-09-18T13:36:01.796Z,15.80
2017-09-18T13:38:29.294Z,17.60
2017-09-18T13:40:56.807Z,19.40
2017-09-18T13:43:24.307Z,21.00
2017-09-18T13:45:52.587Z,21.00
2017-09-18T13:48:20.854Z,20.30
2017-09-18T13:50:49.130Z,19.50
2017-09-18T13:53:17.387Z,18.60
2017-09-18T13:55:44.916Z,18.50
2017-09-18T13:58:12.415Z,18.00
2017-09-18T14:00:39.954Z,17.50
2017-09-18T14:03:07.454Z,17.20
2017-09-18T14:05:34.970Z,16.90
2017-09-18T14:08:02.458Z,16.70
2017-09-18T14:10:30.734Z,16.10
2017-09-18T14:12:59.076Z,16.10
2017-09-18T14:15:26.592Z,15.80
2017-09-18T14:17:54.081Z,15.50
2017-09-18T14:20:21.606Z,15.20
2017-09-18T14:22:49.101Z,14.90
2017-09-18T14:25:16.619Z,14.60
2017-09-18T14:27:44.115Z,14.40
2017-09-18T14:30:11.632Z,14.30
2017-09-18T14:32:39.143Z,14.40
2017-09-18T14:35:06.667Z,14.40
2017-09-18T14:37:34.174Z,14.40
2017-09-18T14:40:01.676Z,14.70
2017-09-18T14:42:29.201Z,15.30
2017-09-18T14:44:56.702Z,15.60
2017-09-18T14:47:24.227Z,16.00
2017-09-18T14:49:51.718Z,16.10
2017-09-18T14:52:19.230Z,16.20
2017-09-18T14:54:46.723Z,16.30
2017-09-18T14:57:14.231Z,16.30
2017-09-18T14:59:41.721Z,16.40
2017-09-18T15:02:09.239Z,16.40
2017-09-18T15:04:36.759Z,16.70
2017-09-18T15:07:04.270Z,16.90
2017-09-18T15:09:31.758Z,17.10
2017-09-18T15:11:59.266Z,17.20
2017-09-18T15:14:26.768Z,17.40
2017-09-18T15:16:55.048Z,17.70
2017-09-18T15:19:23.308Z,17.70
2017-09-18T15:21:51.575Z,17.60
2017-09-18T15:24:19.086Z,17.60
2017-09-18T15:26:46.578Z,17.50
2017-09-18T15:29:14.090Z,17.30
2017-09-18T15:31:41.582Z,17.10
2017-09-18T15:34:09.099Z,16.80
2017-09-18T15:36:36.582Z,16.70
2017-09-18T15:39:04.107Z,16.50
2017-09-18T15:41:31.603Z,16.50
2017-09-18T15:43:59.115Z,16.50
2017-09-18T15:46:26.604Z,16.40
2017-09-18T15:48:54.135Z,16.40
2017-09-18T15:51:22.390Z,16.00
2017-09-18T15:53:49.902Z,16.00
2017-09-18T15:56:17.402Z,15.90
2017-09-18T15:58:44.926Z,15.70
2017-09-18T16:01:12.418Z,15.60
2017-09-18T16:03:39.930Z,15.40
2017-09-18T16:06:07.427Z,15.10
2017-09-18T16:08:34.941Z,14.90
2017-09-18T16:11:02.431Z,14.60
2017-09-18T16:13:29.918Z,14.30
2017-09-18T16:15:57.434Z,13.90
2017-09-18T16:18:24.923Z,13.70
2017-09-18T16:20:52.437Z,13.60
2017-09-18T16:23:19.934Z,13.40
2017-09-18T16:25:47.446Z,13.20
2017-09-18T16:28:14.958Z,13.00
2017-09-18T16:30:42.470Z,12.90
2017-09-18T16:33:09.957Z,12.80
2017-09-18T16:35:37.480Z,12.80
2017-09-18T16:38:04.972Z,12.80
2017-09-18T16:40:32.490Z,12.80
2017-09-18T16:42:59.997Z,12.70
2017-09-18T16:45:27.510Z,12.80
2017-09-18T16:47:55.012Z,12.80
2017-09-18T16:50:22.522Z,12.90
2017-09-18T16:52:50.778Z,13.00
2017-09-18T16:55:18.291Z,13.00
2017-09-18T16:57:45.790Z,13.00
2017-09-18T17:00:13.313Z,13.10
2017-09-18T17:02:40.846Z,13.20
2017-09-18T17:05:08.361Z,13.20
2017-09-18T17:07:35.866Z,13.30
2017-09-18T17:10:03.357Z,13.30
2017-09-18T17:12:30.871Z,13.40
2017-09-18T17:14:58.370Z,13.40
2017-09-18T17:17:25.883Z,13.30
2017-09-18T17:19:53.377Z,13.30
2017-09-18T17:22:20.894Z,13.20
2017-09-18T17:24:49.151Z,13.10
2017-09-18T17:27:17.434Z,13.10
2017-09-18T17:29:45.695Z,13.00
2017-09-18T17:32:13.211Z,13.00
2017-09-18T17:34:40.702Z,12.90
2017-09-18T17:37:08.216Z,12.80
2017-09-18T17:39:35.706Z,12.80
2017-09-18T17:42:03.220Z,12.70
2017-09-18T17:44:30.711Z,12.50
2017-09-18T17:46:58.226Z,12.40
2017-09-18T17:49:25.722Z,12.30
2017-09-18T17:51:53.234Z,12.30
2017-09-18T17:54:21.495Z,12.20
2017-09-18T17:56:48.991Z,12.20
2017-09-18T17:59:16.514Z,12.20
2017-09-18T18:01:44.007Z,12.10
2017-09-18T18:04:11.522Z,12.10
2017-09-18T18:06:39.014Z,12.10
2017-09-18T18:09:06.536Z,12.00
2017-09-18T18:11:34.027Z,12.00
2017-09-18T18:14:01.554Z,11.80
2017-09-18T18:16:29.050Z,11.70
2017-09-18T18:18:56.563Z,11.70
2017-09-18T18:21:24.049Z,11.60
2017-09-18T18:23:52.360Z,11.60
2017-09-18T18:26:19.873Z,11.50
2017-09-18T18:28:47.394Z,11.60
2017-09-18T18:31:14.896Z,11.50
2017-09-18T18:33:42.411Z,11.50
2017-09-18T18:36:09.910Z,11.50
2017-09-18T18:38:37.431Z,11.40
2017-09-18T18:41:04.935Z,11.40
2017-09-18T18:43:33.223Z,11.40
2017-09-18T18:46:01.486Z,11.30
2017-09-18T18:48:29.734Z,11.30
2017-09-18T18:50:57.283Z,11.40
2017-09-18T18:53:24.786Z,11.30
2017-09-18T18:55:53.071Z,11.30
2017-09-18T18:58:21.316Z,11.30
2017-09-18T19:00:49.635Z,11.20
2017-09-18T19:03:17.134Z,11.20
2017-09-18T19:05:46.795Z,11.20
2017-09-18T19:08:14.623Z,11.10
2017-09-18T19:10:42.421Z,11.10
2017-09-18T19:13:11.039Z,11.10
2017-09-18T19:15:41.879Z,11.10
2017-09-18T19:18:09.398Z,11.10
2017-09-18T19:20:42.930Z,11.00
2017-09-18T19:23:10.502Z,11.10
2017-09-18T19:25:38.183Z,11.00
2017-09-18T19:28:05.703Z,11.10
2017-09-18T19:30:33.230Z,11.00
2017-09-18T19:33:01.502Z,11.00
2017-09-18T19:35:29.018Z,11.00
2017-09-18T19:37:56.509Z,11.00
2017-09-18T19:40:24.035Z,11.00
2017-09-18T19:42:51.538Z,11.00
2017-09-18T19:45:19.803Z,11.00
2017-09-18T19:47:47.318Z,10.90
2017-09-18T19:50:14.822Z,11.00
2017-09-18T19:52:42.347Z,11.00
2017-09-18T19:55:09.846Z,11.00
2017-09-18T19:57:38.126Z,11.10
2017-09-18T20:00:06.390Z,11.00
2017-09-18T20:02:33.915Z,11.00
2017-09-18T20:05:01.419Z,11.10
2017-09-18T20:07:28.938Z,11.10
2017-09-18T20:09:56.443Z,11.10
2017-09-18T20:12:24.730Z,11.10
2017-09-18T20:14:52.235Z,11.10
2017-09-18T20:17:19.755Z,11.10
2017-09-18T20:19:47.250Z,11.20
2017-09-18T20:22:14.770Z,11.20
2017-09-18T20:24:42.272Z,11.20
2017-09-18T20:27:09.790Z,11.30
2017-09-18T20:29:37.286Z,11.20
2017-09-18T20:32:04.809Z,11.20
2017-09-18T20:34:32.302Z,11.30
2017-09-18T20:36:59.802Z,11.30
2017-09-18T20:39:28.090Z,11.30
2017-09-18T20:41:55.581Z,11.30
2017-09-18T20:44:23.112Z,11.30
2017-09-18T20:46:50.607Z,11.30
2017-09-18T20:49:18.122Z,11.20
2017-09-18T20:51:45.626Z,11.20
2017-09-18T20:54:13.139Z,11.20
2017-09-18T20:56:40.630Z,11.10
2017-09-18T20:59:08.142Z,11.10
2017-09-18T21:01:35.668Z,11.10
2017-09-18T21:04:03.186Z,11.10
2017-09-18T21:06:30.678Z,11.00
2017-09-18T21:08:58.198Z,11.00
2017-09-18T21:11:25.687Z,10.90
2017-09-18T21:13:53.200Z,10.90
2017-09-18T21:16:20.694Z,10.90
2017-09-18T21:18:48.206Z,10.80
2017-09-18T21:21:16.466Z,10.70
2017-09-18T21:23:43.998Z,10.70
2017-09-18T21:26:11.533Z,10.70
2017-09-18T21:28:39.050Z,10.70
2017-09-18T21:31:06.542Z,10.70
2017-09-18T21:33:34.058Z,10.70
2017-09-18T21:36:02.322Z,10.70
2017-09-18T21:38:29.846Z,10.70
2017-09-18T21:40:57.338Z,10.70
2017-09-18T21:43:24.849Z,10.70
2017-09-18T21:45:52.341Z,10.80
2017-09-18T21:48:19.866Z,10.80
2017-09-18T21:50:47.358Z,10.80
2017-09-18T21:53:14.873Z,10.90
2017-09-18T21:55:42.371Z,10.80
2017-09-18T21:58:09.892Z,10.90
2017-09-18T22:00:37.398Z,10.90
2017-09-18T22:03:04.891Z,10.90
2017-09-18T22:05:33.179Z,11.00
2017-09-18T22:08:00.674Z,10.90
2017-09-18T22:10:28.975Z,10.90
2017-09-18T22:12:56.469Z,10.90
2017-09-18T22:15:24.751Z,11.00
2017-09-18T22:17:52.254Z,11.00
2017-09-18T22:20:19.775Z,11.00
2017-09-18T22:22:47.269Z,11.00
2017-09-18T22:25:14.791Z,11.10
2017-09-18T22:27:42.285Z,11.00
2017-09-18T22:30:09.805Z,11.10
2017-09-18T22:32:37.301Z,11.10
2017-09-18T22:35:04.822Z,11.10
2017-09-18T22:37:32.347Z,11.10
2017-09-18T22:39:59.871Z,11.10
2017-09-18T22:42:27.378Z,11.10
2017-09-18T22:44:54.893Z,11.10
2017-09-18T22:47:22.389Z,11.10
2017-09-18T22:49:50.683Z,11.00
2017-09-18T22:52:18.174Z,11.00
2017-09-18T22:54:45.690Z,11.00
2017-09-18T22:57:13.186Z,11.00
2017-09-18T22:59:40.698Z,11.00
2017-09-18T23:02:08.959Z,11.00
2017-09-18T23:04:37.229Z,10.90
2017-09-18T23:07:04.718Z,11.00
2017-09-18T23:09:33.003Z,11.00
2017-09-18T23:12:00.502Z,10.90
2017-09-18T23:14:28.018Z,11.00
2017-09-18T23:16:55.510Z,11.00
2017-09-18T23:19:23.033Z,11.00
2017-09-18T23:21:50.530Z,11.00
2017-09-18T23:24:18.050Z,11.00
2017-09-18T23:26:45.542Z,11.00
2017-09-18T23:29:13.058Z,11.00
2017-09-18T23:31:40.557Z,11.00
2017-09-18T23:34:08.082Z,11.00
2017-09-18T23:36:35.578Z,11.00
2017-09-18T23:39:03.093Z,11.00
2017-09-18T23:41:31.354Z,11.00
2017-09-18T23:43:59.630Z,11.00
2017-09-18T23:46:27.122Z,11.00
2017-09-18T23:48:54.635Z,11.00
2017-09-18T23:51:22.123Z,11.00
2017-09-18T23:53:49.641Z,10.90
2017-09-18T23:56:17.135Z,11.00
2017-09-18T23:58:45.445Z,11.00
